TimeCST,TemperatureF,Dew PointF,Humidity,Sea Level PressureIn,VisibilityMPH,Wind Direction,Wind SpeedMPH,Gust SpeedMPH,PrecipitationIn,Events,Conditions,WindDirDegrees,DateUTC
12:15 AM,77.0,68.0,74,29.81,10.0,WSW,11.5,20.7,N/A,,Overcast,240,2012-12-20 06:15:00
12:35 AM,77.0,68.0,74,29.82,10.0,WSW,12.7,19.6,N/A,,Overcast,240,2012-12-20 06:35:00
12:55 AM,75.2,60.8,61,29.85,7.0,WNW,28.8,39.1,N/A,,Overcast,300,2012-12-20 06:55:00
1:15 AM,73.4,41.0,31,29.87,4.0,NW,20.7,27.6,N/A,,Haze,310,2012-12-20 07:15:00
1:35 AM,71.6,33.8,25,29.89,4.0,NW,26.5,39.1,N/A,,Haze,320,2012-12-20 07:35:00
1:55 AM,69.8,28.4,21,29.91,3.0,NW,21.9,35.7,N/A,,Haze,310,2012-12-20 07:55:00
2:15 AM,68.0,19.4,16,29.94,4.0,NW,26.5,41.4,N/A,,Haze,320,2012-12-20 08:15:00
2:35 AM,68.0,15.8,13,29.97,4.0,NW,17.3,36.8,N/A,,Haze,310,2012-12-20 08:35:00
2:55 AM,66.2,17.6,15,29.98,3.0,NW,20.7,28.8,N/A,,Haze,310,2012-12-20 08:55:00
3:15 AM,64.4,21.2,19,30.00,3.0,NW,21.9,33.4,N/A,,Haze,310,2012-12-20 09:15:00
3:35 AM,62.6,19.4,19,30.02,5.0,NW,27.6,33.4,N/A,,Haze,310,2012-12-20 09:35:00
3:55 AM,62.6,21.2,20,30.03,5.0,NW,16.1,26.5,N/A,,Haze,320,2012-12-20 09:55:00
4:15 AM,59.0,21.2,23,30.06,10.0,NW,21.9,39.1,N/A,,Clear,320,2012-12-20 10:15:00
4:35 AM,55.4,23.0,29,30.09,10.0,NNW,27.6,39.1,N/A,,Clear,330,2012-12-20 10:35:00
4:55 AM,51.8,24.8,35,30.11,10.0,NNW,31.1,36.8,N/A,,Clear,330,2012-12-20 10:55:00
5:15 AM,50.0,21.2,32,30.13,10.0,NNW,29.9,47.2,N/A,,Clear,330,2012-12-20 11:15:00
5:35 AM,50.0,21.2,32,30.14,10.0,NNW,29.9,38.0,N/A,,Clear,330,2012-12-20 11:35:00
5:55 AM,46.4,23.0,40,30.16,10.0,NNW,18.4,32.2,N/A,,Clear,330,2012-12-20 11:55:00
6:15 AM,46.4,23.0,40,30.18,10.0,NNW,21.9,32.2,N/A,,Clear,330,2012-12-20 12:15:00
6:35 AM,46.4,23.0,40,30.19,10.0,NNW,16.1,29.9,N/A,,Clear,330,2012-12-20 12:35:00
6:55 AM,46.4,23.0,40,30.20,10.0,NNW,23.0,33.4,N/A,,Clear,330,2012-12-20 12:55:00
7:15 AM,44.6,23.0,43,30.22,10.0,NNW,24.2,33.4,N/A,,Clear,330,2012-12-20 13:15:00
7:35 AM,44.6,23.0,43,30.23,10.0,NNW,18.4,29.9,N/A,,Clear,330,2012-12-20 13:35:00
7:55 AM,44.6,24.8,46,30.25,10.0,NNW,19.6,28.8,N/A,,Clear,330,2012-12-20 13:55:00
8:15 AM,46.4,24.8,43,30.26,10.0,NNW,21.9,31.1,N/A,,Clear,330,2012-12-20 14:15:00
8:35 AM,46.4,24.8,43,30.27,10.0,NNW,23.0,32.2,N/A,,Clear,330,2012-12-20 14:35:00
8:55 AM,46.4,24.8,43,30.30,10.0,NNW,24.2,34.5,N/A,,Clear,330,2012-12-20 14:55:00
9:15 AM,48.2,24.8,40,30.31,10.0,NW,25.3,32.2,N/A,,Clear,320,2012-12-20 15:15:00
9:35 AM,50.0,23.0,35,30.33,10.0,NNW,20.7,34.5,N/A,,Clear,330,2012-12-20 15:35:00
9:55 AM,50.0,23.0,35,30.35,10.0,NNW,26.5,33.4,N/A,,Clear,330,2012-12-20 15:55:00
10:15 AM,50.0,23.0,35,30.35,10.0,NW,26.5,35.7,N/A,,Clear,320,2012-12-20 16:15:00
10:35 AM,51.8,23.0,33,30.36,10.0,NW,23.0,34.5,N/A,,Clear,310,2012-12-20 16:35:00
10:55 AM,51.8,23.0,33,30.37,10.0,NW,24.2,31.1,N/A,,Clear,320,2012-12-20 16:55:00
11:15 AM,51.8,21.2,30,30.37,10.0,NNW,26.5,35.7,N/A,,Clear,330,2012-12-20 17:15:00
11:35 AM,53.6,21.2,28,30.36,10.0,NNW,21.9,34.5,N/A,,Clear,330,2012-12-20 17:35:00
11:55 AM,53.6,19.4,26,30.36,10.0,NNW,19.6,31.1,N/A,,Clear,330,2012-12-20 17:55:00
12:15 PM,53.6,17.6,24,30.35,10.0,NNW,25.3,33.4,N/A,,Clear,330,2012-12-20 18:15:00
12:35 PM,55.4,15.8,21,30.34,10.0,NNW,19.6,28.8,N/A,,Clear,340,2012-12-20 18:35:00
12:55 PM,55.4,12.2,18,30.33,10.0,NNW,25.3,33.4,N/A,,Clear,330,2012-12-20 18:55:00
1:15 PM,55.4,10.4,17,30.33,10.0,NNW,24.2,33.4,N/A,,Clear,340,2012-12-20 19:15:00
1:35 PM,55.4,8.6,15,30.34,10.0,NNW,24.2,35.7,N/A,,Clear,330,2012-12-20 19:35:00
1:55 PM,55.4,8.6,15,30.33,10.0,NNW,20.7,32.2,N/A,,Clear,340,2012-12-20 19:55:00
2:15 PM,57.2,6.8,13,30.33,10.0,NNW,25.3,33.4,N/A,,Clear,340,2012-12-20 20:15:00
2:35 PM,57.2,5.0,12,30.34,10.0,NNW,24.2,29.9,N/A,,Clear,340,2012-12-20 20:35:00
2:55 PM,57.2,6.8,13,30.33,10.0,North,20.7,29.9,N/A,,Clear,350,2012-12-20 20:55:00
3:15 PM,57.2,5.0,12,30.34,10.0,NW,26.5,32.2,N/A,,Clear,320,2012-12-20 21:15:00
3:35 PM,57.2,5.0,12,30.34,10.0,NNW,20.7,32.2,N/A,,Clear,340,2012-12-20 21:35:00
3:55 PM,55.4,5.0,13,30.35,10.0,NNW,19.6,29.9,N/A,,Clear,340,2012-12-20 21:55:00
4:15 PM,55.4,5.0,13,30.36,10.0,NNW,21.9,32.2,N/A,,Clear,330,2012-12-20 22:15:00
4:35 PM,55.4,5.0,13,30.36,10.0,NNW,18.4,23.0,N/A,,Clear,340,2012-12-20 22:35:00
4:55 PM,55.4,5.0,13,30.37,10.0,NNW,19.6,24.2,N/A,,Clear,340,2012-12-20 22:55:00
5:15 PM,53.6,6.8,15,30.37,10.0,NNW,15.0,20.7,N/A,,Clear,340,2012-12-20 23:15:00
5:35 PM,51.8,5.0,15,30.38,10.0,NNW,13.8,17.3,N/A,,Clear,330,2012-12-20 23:35:00
5:55 PM,51.8,6.8,16,30.38,10.0,NNW,9.2,-,N/A,,Clear,340,2012-12-20 23:55:00
6:15 PM,50.0,8.6,19,30.39,10.0,NNW,6.9,-,N/A,,Clear,340,2012-12-21 00:15:00
6:35 PM,50.0,8.6,19,30.39,10.0,NNW,8.1,-,N/A,,Clear,330,2012-12-21 00:35:00
6:55 PM,48.2,8.6,20,30.39,10.0,NNW,8.1,-,N/A,,Clear,330,2012-12-21 00:55:00
7:15 PM,48.2,8.6,20,30.40,10.0,NNW,6.9,-,N/A,,Clear,330,2012-12-21 01:15:00
7:35 PM,46.4,10.4,23,30.41,10.0,NNW,5.8,-,N/A,,Clear,330,2012-12-21 01:35:00
7:55 PM,44.6,10.4,25,30.41,10.0,NNW,5.8,-,N/A,,Clear,330,2012-12-21 01:55:00
8:15 PM,44.6,12.2,27,30.41,10.0,NW,5.8,-,N/A,,Clear,320,2012-12-21 02:15:00
8:35 PM,44.6,10.4,25,30.42,10.0,NW,4.6,-,N/A,,Clear,310,2012-12-21 02:35:00
8:55 PM,44.6,10.4,25,30.43,10.0,WNW,3.5,-,N/A,,Clear,300,2012-12-21 02:55:00
9:15 PM,42.8,12.2,29,30.43,10.0,NW,4.6,-,N/A,,Clear,310,2012-12-21 03:15:00
9:35 PM,42.8,10.4,27,30.44,10.0,NW,4.6,-,N/A,,Clear,310,2012-12-21 03:35:00
9:55 PM,42.8,10.4,27,30.45,10.0,WNW,3.5,-,N/A,,Clear,300,2012-12-21 03:55:00
10:15 PM,41.0,12.2,31,30.46,10.0,WNW,3.5,-,N/A,,Clear,300,2012-12-21 04:15:00
10:35 PM,41.0,12.2,31,30.46,10.0,WNW,4.6,-,N/A,,Clear,300,2012-12-21 04:35:00
10:55 PM,37.4,17.6,45,30.47,10.0,Calm,Calm,-,N/A,,Clear,0,2012-12-21 04:55:00
11:15 PM,35.6,19.4,52,30.47,10.0,Calm,Calm,-,N/A,,Clear,0,2012-12-21 05:15:00
11:35 PM,37.4,17.6,45,30.47,10.0,West,3.5,-,N/A,,Clear,260,2012-12-21 05:35:00
11:55 PM,37.4,15.8,41,30.47,10.0,WNW,3.5,-,N/A,,Clear,290,2012-12-21 05:55:00